sensor_id;sensor_type;location;lat;lon;timestamp;P1;durP1;ratioP1;P2;durP2;ratioP2
82867;SDS011;72629;51.206;4.424;2023-10-08T00:01:27;8.82;;;3.80;;
82867;SDS011;72629;51.206;4.424;2023-10-08T00:03:53;10.02;;;4.10;;
82867;SDS011;72629;51.206;4.424;2023-10-08T00:06:23;9.05;;;3.65;;
82867;SDS011;72629;51.206;4.424;2023-10-08T00:08:49;9.68;;;3.20;;
82867;SDS011;72629;51.206;4.424;2023-10-08T00:11:16;8.75;;;3.55;;
82867;SDS011;72629;51.206;4.424;2023-10-08T00:13:47;9.27;;;3.53;;
82867;SDS011;72629;51.206;4.424;2023-10-08T00:16:13;7.00;;;3.10;;
82867;SDS011;72629;51.206;4.424;2023-10-08T00:18:42;10.45;;;3.83;;
82867;SDS011;72629;51.206;4.424;2023-10-08T00:21:16;7.82;;;3.22;;
82867;SDS011;72629;51.206;4.424;2023-10-08T00:23:44;7.93;;;3.25;;
82867;SDS011;72629;51.206;4.424;2023-10-08T00:26:25;7.45;;;3.20;;
82867;SDS011;72629;51.206;4.424;2023-10-08T00:29:00;9.98;;;3.25;;
82867;SDS011;72629;51.206;4.424;2023-10-08T00:31:51;6.50;;;3.10;;
82867;SDS011;72629;51.206;4.424;2023-10-08T00:34:17;7.45;;;3.00;;
82867;SDS011;72629;51.206;4.424;2023-10-08T00:36:47;7.65;;;3.10;;
82867;SDS011;72629;51.206;4.424;2023-10-08T00:39:14;7.40;;;2.80;;
82867;SDS011;72629;51.206;4.424;2023-10-08T00:41:47;8.40;;;2.97;;
82867;SDS011;72629;51.206;4.424;2023-10-08T00:44:23;10.48;;;3.58;;
82867;SDS011;72629;51.206;4.424;2023-10-08T00:46:55;10.05;;;3.17;;
82867;SDS011;72629;51.206;4.424;2023-10-08T00:49:22;7.55;;;3.13;;
82867;SDS011;72629;51.206;4.424;2023-10-08T00:51:54;7.68;;;3.25;;
82867;SDS011;72629;51.206;4.424;2023-10-08T00:54:33;8.02;;;3.10;;
82867;SDS011;72629;51.206;4.424;2023-10-08T00:57:11;9.07;;;3.13;;
82867;SDS011;72629;51.206;4.424;2023-10-08T00:59:45;8.60;;;2.90;;
82867;SDS011;72629;51.206;4.424;2023-10-08T01:02:15;8.55;;;3.17;;
82867;SDS011;72629;51.206;4.424;2023-10-08T01:04:45;8.38;;;3.30;;
82867;SDS011;72629;51.206;4.424;2023-10-08T01:07:12;7.85;;;3.17;;
82867;SDS011;72629;51.206;4.424;2023-10-08T01:09:41;7.07;;;3.03;;
82867;SDS011;72629;51.206;4.424;2023-10-08T01:12:12;9.88;;;3.40;;
82867;SDS011;72629;51.206;4.424;2023-10-08T01:14:54;9.27;;;3.15;;
82867;SDS011;72629;51.206;4.424;2023-10-08T01:17:29;8.73;;;3.35;;
82867;SDS011;72629;51.206;4.424;2023-10-08T01:19:57;11.25;;;3.22;;
82867;SDS011;72629;51.206;4.424;2023-10-08T01:22:45;7.43;;;3.00;;
82867;SDS011;72629;51.206;4.424;2023-10-08T01:25:10;9.60;;;3.03;;
82867;SDS011;72629;51.206;4.424;2023-10-08T01:27:45;9.50;;;3.00;;
82867;SDS011;72629;51.206;4.424;2023-10-08T01:30:11;10.75;;;3.47;;
82867;SDS011;72629;51.206;4.424;2023-10-08T01:32:43;8.13;;;3.45;;
82867;SDS011;72629;51.206;4.424;2023-10-08T01:35:09;9.95;;;3.22;;
82867;SDS011;72629;51.206;4.424;2023-10-08T01:37:51;9.45;;;3.15;;
82867;SDS011;72629;51.206;4.424;2023-10-08T01:40:17;9.57;;;3.38;;
82867;SDS011;72629;51.206;4.424;2023-10-08T01:42:43;8.77;;;3.35;;
82867;SDS011;72629;51.206;4.424;2023-10-08T01:45:10;10.18;;;3.30;;
82867;SDS011;72629;51.206;4.424;2023-10-08T01:47:43;11.60;;;3.85;;
82867;SDS011;72629;51.206;4.424;2023-10-08T01:50:09;9.57;;;3.35;;
82867;SDS011;72629;51.206;4.424;2023-10-08T01:52:46;10.27;;;3.58;;
82867;SDS011;72629;51.206;4.424;2023-10-08T01:55:13;9.00;;;3.00;;
82867;SDS011;72629;51.206;4.424;2023-10-08T01:57:44;9.32;;;3.30;;
82867;SDS011;72629;51.206;4.424;2023-10-08T02:00:11;9.85;;;3.50;;
82867;SDS011;72629;51.206;4.424;2023-10-08T02:02:39;8.98;;;3.30;;
82867;SDS011;72629;51.206;4.424;2023-10-08T02:05:06;8.05;;;3.75;;
82867;SDS011;72629;51.206;4.424;2023-10-08T02:07:32;9.70;;;3.60;;
82867;SDS011;72629;51.206;4.424;2023-10-08T02:09:59;10.38;;;4.20;;
82867;SDS011;72629;51.206;4.424;2023-10-08T02:12:24;10.32;;;3.90;;
82867;SDS011;72629;51.206;4.424;2023-10-08T02:14:50;8.20;;;3.50;;
82867;SDS011;72629;51.206;4.424;2023-10-08T02:17:16;10.38;;;3.72;;
82867;SDS011;72629;51.206;4.424;2023-10-08T02:19:42;9.02;;;3.63;;
82867;SDS011;72629;51.206;4.424;2023-10-08T02:22:08;8.95;;;3.60;;
82867;SDS011;72629;51.206;4.424;2023-10-08T02:24:37;8.07;;;3.28;;
82867;SDS011;72629;51.206;4.424;2023-10-08T02:27:02;8.95;;;3.28;;
82867;SDS011;72629;51.206;4.424;2023-10-08T02:29:29;8.88;;;3.53;;
82867;SDS011;72629;51.206;4.424;2023-10-08T02:31:56;7.55;;;3.38;;
82867;SDS011;72629;51.206;4.424;2023-10-08T02:34:22;9.77;;;3.50;;
82867;SDS011;72629;51.206;4.424;2023-10-08T02:36:48;8.93;;;3.67;;
82867;SDS011;72629;51.206;4.424;2023-10-08T02:39:13;8.20;;;3.75;;
82867;SDS011;72629;51.206;4.424;2023-10-08T02:41:46;9.00;;;3.53;;
82867;SDS011;72629;51.206;4.424;2023-10-08T02:44:13;10.10;;;3.50;;
82867;SDS011;72629;51.206;4.424;2023-10-08T02:46:40;9.50;;;4.07;;
82867;SDS011;72629;51.206;4.424;2023-10-08T02:49:10;7.55;;;3.13;;
82867;SDS011;72629;51.206;4.424;2023-10-08T02:51:40;8.93;;;3.53;;
82867;SDS011;72629;51.206;4.424;2023-10-08T02:54:09;12.70;;;4.13;;
82867;SDS011;72629;51.206;4.424;2023-10-08T02:56:42;10.68;;;3.88;;
82867;SDS011;72629;51.206;4.424;2023-10-08T02:59:10;7.05;;;3.35;;
82867;SDS011;72629;51.206;4.424;2023-10-08T03:01:37;8.00;;;3.47;;
82867;SDS011;72629;51.206;4.424;2023-10-08T03:04:05;8.30;;;3.50;;
82867;SDS011;72629;51.206;4.424;2023-10-08T03:06:39;12.25;;;4.20;;
82867;SDS011;72629;51.206;4.424;2023-10-08T03:09:06;12.65;;;3.70;;
82867;SDS011;72629;51.206;4.424;2023-10-08T03:11:34;9.93;;;3.80;;
82867;SDS011;72629;51.206;4.424;2023-10-08T03:14:02;9.75;;;3.67;;
82867;SDS011;72629;51.206;4.424;2023-10-08T03:16:28;10.48;;;4.00;;
82867;SDS011;72629;51.206;4.424;2023-10-08T03:18:59;9.32;;;3.40;;
82867;SDS011;72629;51.206;4.424;2023-10-08T03:21:26;12.17;;;3.97;;
82867;SDS011;72629;51.206;4.424;2023-10-08T03:24:03;10.98;;;3.80;;
82867;SDS011;72629;51.206;4.424;2023-10-08T03:26:38;10.57;;;3.95;;
82867;SDS011;72629;51.206;4.424;2023-10-08T03:29:10;10.52;;;3.88;;
82867;SDS011;72629;51.206;4.424;2023-10-08T03:31:43;10.65;;;3.83;;
82867;SDS011;72629;51.206;4.424;2023-10-08T03:34:11;10.30;;;3.72;;
82867;SDS011;72629;51.206;4.424;2023-10-08T03:36:40;8.43;;;3.80;;
82867;SDS011;72629;51.206;4.424;2023-10-08T03:39:10;9.15;;;3.90;;
82867;SDS011;72629;51.206;4.424;2023-10-08T03:41:38;11.77;;;4.00;;
82867;SDS011;72629;51.206;4.424;2023-10-08T03:44:16;9.90;;;3.72;;
82867;SDS011;72629;51.206;4.424;2023-10-08T03:46:42;9.90;;;4.03;;
82867;SDS011;72629;51.206;4.424;2023-10-08T03:49:08;10.45;;;4.88;;
82867;SDS011;72629;51.206;4.424;2023-10-08T03:51:43;10.70;;;4.10;;
82867;SDS011;72629;51.206;4.424;2023-10-08T03:54:09;9.75;;;3.97;;
82867;SDS011;72629;51.206;4.424;2023-10-08T03:56:41;10.45;;;4.35;;
82867;SDS011;72629;51.206;4.424;2023-10-08T03:59:13;10.27;;;4.32;;
82867;SDS011;72629;51.206;4.424;2023-10-08T04:01:45;11.05;;;4.50;;
82867;SDS011;72629;51.206;4.424;2023-10-08T04:04:14;12.13;;;4.18;;
82867;SDS011;72629;51.206;4.424;2023-10-08T04:06:40;11.00;;;4.20;;
82867;SDS011;72629;51.206;4.424;2023-10-08T04:09:19;10.38;;;4.20;;
82867;SDS011;72629;51.206;4.424;2023-10-08T04:11:51;8.98;;;4.20;;
82867;SDS011;72629;51.206;4.424;2023-10-08T04:14:20;9.82;;;3.95;;
82867;SDS011;72629;51.206;4.424;2023-10-08T04:16:46;10.57;;;3.67;;
82867;SDS011;72629;51.206;4.424;2023-10-08T04:19:16;14.55;;;4.38;;
82867;SDS011;72629;51.206;4.424;2023-10-08T04:21:50;10.00;;;4.90;;
82867;SDS011;72629;51.206;4.424;2023-10-08T04:24:22;9.57;;;3.80;;
82867;SDS011;72629;51.206;4.424;2023-10-08T04:27:02;10.70;;;4.15;;
82867;SDS011;72629;51.206;4.424;2023-10-08T04:29:28;7.97;;;3.80;;
82867;SDS011;72629;51.206;4.424;2023-10-08T04:31:58;11.82;;;4.50;;
82867;SDS011;72629;51.206;4.424;2023-10-08T04:34:32;10.00;;;3.83;;
82867;SDS011;72629;51.206;4.424;2023-10-08T04:36:59;11.10;;;3.80;;
82867;SDS011;72629;51.206;4.424;2023-10-08T04:39:29;11.63;;;4.45;;
82867;SDS011;72629;51.206;4.424;2023-10-08T04:42:01;11.80;;;4.50;;
82867;SDS011;72629;51.206;4.424;2023-10-08T04:44:38;12.65;;;4.20;;
82867;SDS011;72629;51.206;4.424;2023-10-08T04:47:04;10.55;;;3.60;;
82867;SDS011;72629;51.206;4.424;2023-10-08T04:49:31;10.00;;;3.70;;
82867;SDS011;72629;51.206;4.424;2023-10-08T04:52:06;11.70;;;4.47;;
82867;SDS011;72629;51.206;4.424;2023-10-08T04:54:43;11.15;;;4.47;;
82867;SDS011;72629;51.206;4.424;2023-10-08T04:57:16;9.98;;;3.97;;
82867;SDS011;72629;51.206;4.424;2023-10-08T04:59:43;9.38;;;4.00;;
82867;SDS011;72629;51.206;4.424;2023-10-08T05:02:11;10.43;;;3.92;;
82867;SDS011;72629;51.206;4.424;2023-10-08T05:04:38;9.13;;;3.75;;
82867;SDS011;72629;51.206;4.424;2023-10-08T05:07:22;11.52;;;4.57;;
82867;SDS011;72629;51.206;4.424;2023-10-08T05:10:07;9.35;;;3.83;;
82867;SDS011;72629;51.206;4.424;2023-10-08T05:12:33;13.00;;;4.55;;
82867;SDS011;72629;51.206;4.424;2023-10-08T05:15:37;11.40;;;4.65;;
82867;SDS011;72629;51.206;4.424;2023-10-08T05:18:07;11.27;;;4.22;;
82867;SDS011;72629;51.206;4.424;2023-10-08T05:20:48;11.75;;;4.18;;
82867;SDS011;72629;51.206;4.424;2023-10-08T05:23:15;9.90;;;4.05;;
82867;SDS011;72629;51.206;4.424;2023-10-08T05:25:55;10.65;;;4.38;;
82867;SDS011;72629;51.206;4.424;2023-10-08T05:28:34;8.95;;;4.28;;
82867;SDS011;72629;51.206;4.424;2023-10-08T05:31:10;9.57;;;3.97;;
82867;SDS011;72629;51.206;4.424;2023-10-08T05:33:46;9.48;;;4.30;;
82867;SDS011;72629;51.206;4.424;2023-10-08T05:36:42;9.95;;;4.07;;
82867;SDS011;72629;51.206;4.424;2023-10-08T05:39:27;10.25;;;4.10;;
82867;SDS011;72629;51.206;4.424;2023-10-08T05:42:06;10.85;;;4.50;;
82867;SDS011;72629;51.206;4.424;2023-10-08T05:44:41;10.45;;;4.47;;
82867;SDS011;72629;51.206;4.424;2023-10-08T05:47:14;10.15;;;5.00;;
82867;SDS011;72629;51.206;4.424;2023-10-08T05:49:43;12.55;;;5.00;;
82867;SDS011;72629;51.206;4.424;2023-10-08T05:52:19;9.98;;;4.20;;
82867;SDS011;72629;51.206;4.424;2023-10-08T05:55:02;11.05;;;4.50;;
82867;SDS011;72629;51.206;4.424;2023-10-08T05:57:47;11.80;;;4.28;;
82867;SDS011;72629;51.206;4.424;2023-10-08T06:00:17;10.93;;;4.10;;
82867;SDS011;72629;51.206;4.424;2023-10-08T06:03:03;10.75;;;4.45;;
82867;SDS011;72629;51.206;4.424;2023-10-08T06:05:35;9.48;;;4.35;;
82867;SDS011;72629;51.206;4.424;2023-10-08T06:08:08;12.45;;;5.35;;
82867;SDS011;72629;51.206;4.424;2023-10-08T06:10:39;13.27;;;5.30;;
82867;SDS011;72629;51.206;4.424;2023-10-08T06:13:06;12.32;;;4.75;;
82867;SDS011;72629;51.206;4.424;2023-10-08T06:16:06;10.15;;;4.32;;
82867;SDS011;72629;51.206;4.424;2023-10-08T06:18:33;10.38;;;4.43;;
82867;SDS011;72629;51.206;4.424;2023-10-08T06:21:03;13.45;;;4.40;;
82867;SDS011;72629;51.206;4.424;2023-10-08T06:23:33;11.00;;;4.78;;
82867;SDS011;72629;51.206;4.424;2023-10-08T06:26:00;11.43;;;4.85;;
82867;SDS011;72629;51.206;4.424;2023-10-08T06:28:36;11.43;;;5.10;;
82867;SDS011;72629;51.206;4.424;2023-10-08T06:31:03;13.50;;;4.82;;
82867;SDS011;72629;51.206;4.424;2023-10-08T06:33:37;12.50;;;5.00;;
82867;SDS011;72629;51.206;4.424;2023-10-08T06:36:05;11.55;;;4.70;;
82867;SDS011;72629;51.206;4.424;2023-10-08T06:38:45;12.18;;;4.82;;
82867;SDS011;72629;51.206;4.424;2023-10-08T06:41:14;12.15;;;4.88;;
82867;SDS011;72629;51.206;4.424;2023-10-08T06:43:46;11.35;;;4.75;;
82867;SDS011;72629;51.206;4.424;2023-10-08T06:46:27;9.57;;;4.82;;
82867;SDS011;72629;51.206;4.424;2023-10-08T06:48:57;13.80;;;4.97;;
82867;SDS011;72629;51.206;4.424;2023-10-08T06:51:23;12.15;;;5.18;;
82867;SDS011;72629;51.206;4.424;2023-10-08T06:53:51;10.95;;;4.82;;
82867;SDS011;72629;51.206;4.424;2023-10-08T06:56:19;11.77;;;5.45;;
82867;SDS011;72629;51.206;4.424;2023-10-08T06:58:45;11.30;;;4.88;;
82867;SDS011;72629;51.206;4.424;2023-10-08T07:01:18;13.75;;;4.80;;
82867;SDS011;72629;51.206;4.424;2023-10-08T07:03:47;12.43;;;5.07;;
82867;SDS011;72629;51.206;4.424;2023-10-08T07:06:17;10.73;;;4.88;;
82867;SDS011;72629;51.206;4.424;2023-10-08T07:08:56;13.77;;;4.93;;
82867;SDS011;72629;51.206;4.424;2023-10-08T07:13:52;13.68;;;5.47;;
82867;SDS011;72629;51.206;4.424;2023-10-08T07:16:18;12.05;;;4.90;;
82867;SDS011;72629;51.206;4.424;2023-10-08T07:21:18;12.00;;;4.78;;
82867;SDS011;72629;51.206;4.424;2023-10-08T07:23:49;11.13;;;5.20;;
82867;SDS011;72629;51.206;4.424;2023-10-08T07:26:29;11.75;;;5.82;;
82867;SDS011;72629;51.206;4.424;2023-10-08T07:29:01;12.07;;;5.28;;
82867;SDS011;72629;51.206;4.424;2023-10-08T07:31:34;12.63;;;5.72;;
82867;SDS011;72629;51.206;4.424;2023-10-08T07:34:02;12.57;;;5.50;;
82867;SDS011;72629;51.206;4.424;2023-10-08T07:36:41;12.05;;;5.50;;
82867;SDS011;72629;51.206;4.424;2023-10-08T07:39:08;10.80;;;5.35;;
82867;SDS011;72629;51.206;4.424;2023-10-08T07:41:45;11.38;;;5.15;;
82867;SDS011;72629;51.206;4.424;2023-10-08T07:44:13;14.07;;;5.50;;
82867;SDS011;72629;51.206;4.424;2023-10-08T07:46:38;12.93;;;5.05;;
82867;SDS011;72629;51.206;4.424;2023-10-08T07:49:04;10.38;;;5.18;;
82867;SDS011;72629;51.206;4.424;2023-10-08T07:51:30;11.05;;;5.30;;
82867;SDS011;72629;51.206;4.424;2023-10-08T07:53:56;12.25;;;5.40;;
82867;SDS011;72629;51.206;4.424;2023-10-08T07:56:22;14.30;;;5.80;;
82867;SDS011;72629;51.206;4.424;2023-10-08T07:58:48;13.90;;;5.60;;
82867;SDS011;72629;51.206;4.424;2023-10-08T08:01:14;12.48;;;5.18;;
82867;SDS011;72629;51.206;4.424;2023-10-08T08:03:40;12.02;;;5.18;;
82867;SDS011;72629;51.206;4.424;2023-10-08T08:06:07;13.57;;;5.45;;
82867;SDS011;72629;51.206;4.424;2023-10-08T08:08:37;12.43;;;5.70;;
82867;SDS011;72629;51.206;4.424;2023-10-08T08:11:04;13.30;;;5.45;;
82867;SDS011;72629;51.206;4.424;2023-10-08T08:13:37;13.98;;;5.57;;
82867;SDS011;72629;51.206;4.424;2023-10-08T08:16:07;12.98;;;5.40;;
82867;SDS011;72629;51.206;4.424;2023-10-08T08:18:52;11.65;;;5.50;;
82867;SDS011;72629;51.206;4.424;2023-10-08T08:21:22;13.02;;;5.57;;
82867;SDS011;72629;51.206;4.424;2023-10-08T08:23:48;13.77;;;5.57;;
82867;SDS011;72629;51.206;4.424;2023-10-08T08:26:18;16.05;;;5.95;;
82867;SDS011;72629;51.206;4.424;2023-10-08T08:28:58;14.65;;;6.03;;
82867;SDS011;72629;51.206;4.424;2023-10-08T08:31:27;12.88;;;6.15;;
82867;SDS011;72629;51.206;4.424;2023-10-08T08:34:00;13.18;;;5.57;;
82867;SDS011;72629;51.206;4.424;2023-10-08T08:36:42;12.77;;;5.95;;
82867;SDS011;72629;51.206;4.424;2023-10-08T08:39:11;11.93;;;5.75;;
82867;SDS011;72629;51.206;4.424;2023-10-08T08:41:54;17.25;;;6.95;;
82867;SDS011;72629;51.206;4.424;2023-10-08T08:44:30;13.65;;;6.15;;
82867;SDS011;72629;51.206;4.424;2023-10-08T08:46:58;17.85;;;6.63;;
82867;SDS011;72629;51.206;4.424;2023-10-08T08:49:29;15.55;;;6.20;;
82867;SDS011;72629;51.206;4.424;2023-10-08T08:51:59;15.88;;;5.65;;
82867;SDS011;72629;51.206;4.424;2023-10-08T08:54:26;15.73;;;7.00;;
82867;SDS011;72629;51.206;4.424;2023-10-08T08:56:56;13.48;;;6.10;;
82867;SDS011;72629;51.206;4.424;2023-10-08T08:59:25;13.85;;;5.95;;
82867;SDS011;72629;51.206;4.424;2023-10-08T09:01:52;16.30;;;6.32;;
82867;SDS011;72629;51.206;4.424;2023-10-08T09:04:27;15.70;;;6.57;;
82867;SDS011;72629;51.206;4.424;2023-10-08T09:06:56;15.50;;;6.60;;
82867;SDS011;72629;51.206;4.424;2023-10-08T09:09:30;15.80;;;6.38;;
82867;SDS011;72629;51.206;4.424;2023-10-08T09:11:57;15.70;;;6.45;;
82867;SDS011;72629;51.206;4.424;2023-10-08T09:14:23;15.50;;;6.65;;
82867;SDS011;72629;51.206;4.424;2023-10-08T09:16:52;14.20;;;6.05;;
82867;SDS011;72629;51.206;4.424;2023-10-08T09:19:22;16.98;;;7.10;;
82867;SDS011;72629;51.206;4.424;2023-10-08T09:22:10;18.08;;;7.38;;
82867;SDS011;72629;51.206;4.424;2023-10-08T09:24:38;16.92;;;6.50;;
82867;SDS011;72629;51.206;4.424;2023-10-08T09:27:05;15.18;;;6.55;;
82867;SDS011;72629;51.206;4.424;2023-10-08T09:29:32;14.20;;;6.05;;
82867;SDS011;72629;51.206;4.424;2023-10-08T09:32:13;13.95;;;6.05;;
82867;SDS011;72629;51.206;4.424;2023-10-08T09:34:39;17.52;;;7.20;;
82867;SDS011;72629;51.206;4.424;2023-10-08T09:37:05;14.63;;;7.18;;
82867;SDS011;72629;51.206;4.424;2023-10-08T09:39:33;15.02;;;6.40;;
82867;SDS011;72629;51.206;4.424;2023-10-08T09:42:02;15.40;;;7.47;;
82867;SDS011;72629;51.206;4.424;2023-10-08T09:44:29;16.60;;;6.93;;
82867;SDS011;72629;51.206;4.424;2023-10-08T09:47:08;16.52;;;6.90;;
82867;SDS011;72629;51.206;4.424;2023-10-08T09:49:40;19.58;;;7.22;;
82867;SDS011;72629;51.206;4.424;2023-10-08T09:52:13;14.38;;;6.35;;
82867;SDS011;72629;51.206;4.424;2023-10-08T09:54:43;15.63;;;6.70;;
82867;SDS011;72629;51.206;4.424;2023-10-08T09:57:15;17.33;;;7.03;;
82867;SDS011;72629;51.206;4.424;2023-10-08T09:59:43;17.38;;;7.60;;
82867;SDS011;72629;51.206;4.424;2023-10-08T10:02:11;16.60;;;7.30;;
82867;SDS011;72629;51.206;4.424;2023-10-08T10:04:41;14.82;;;7.10;;
82867;SDS011;72629;51.206;4.424;2023-10-08T10:07:10;14.98;;;7.03;;
82867;SDS011;72629;51.206;4.424;2023-10-08T10:09:45;12.95;;;6.53;;
82867;SDS011;72629;51.206;4.424;2023-10-08T10:12:18;14.82;;;6.20;;
82867;SDS011;72629;51.206;4.424;2023-10-08T10:14:51;15.88;;;6.13;;
82867;SDS011;72629;51.206;4.424;2023-10-08T10:17:21;14.05;;;6.28;;
82867;SDS011;72629;51.206;4.424;2023-10-08T10:19:53;13.50;;;6.45;;
82867;SDS011;72629;51.206;4.424;2023-10-08T10:22:32;14.60;;;6.28;;
82867;SDS011;72629;51.206;4.424;2023-10-08T10:24:59;18.92;;;7.38;;
82867;SDS011;72629;51.206;4.424;2023-10-08T10:27:39;15.32;;;7.15;;
82867;SDS011;72629;51.206;4.424;2023-10-08T10:30:29;15.95;;;6.32;;
82867;SDS011;72629;51.206;4.424;2023-10-08T10:32:55;16.27;;;6.88;;
82867;SDS011;72629;51.206;4.424;2023-10-08T10:35:25;18.08;;;7.25;;
82867;SDS011;72629;51.206;4.424;2023-10-08T10:37:52;17.45;;;7.38;;
82867;SDS011;72629;51.206;4.424;2023-10-08T10:40:23;15.73;;;6.43;;
82867;SDS011;72629;51.206;4.424;2023-10-08T10:43:07;15.10;;;6.40;;
82867;SDS011;72629;51.206;4.424;2023-10-08T10:45:40;16.45;;;7.47;;
82867;SDS011;72629;51.206;4.424;2023-10-08T10:48:11;14.18;;;6.00;;
82867;SDS011;72629;51.206;4.424;2023-10-08T10:50:46;14.55;;;7.15;;
82867;SDS011;72629;51.206;4.424;2023-10-08T10:53:32;13.10;;;6.65;;
82867;SDS011;72629;51.206;4.424;2023-10-08T10:56:26;14.35;;;6.82;;
82867;SDS011;72629;51.206;4.424;2023-10-08T10:59:00;14.85;;;7.55;;
82867;SDS011;72629;51.206;4.424;2023-10-08T11:01:50;15.20;;;6.90;;
82867;SDS011;72629;51.206;4.424;2023-10-08T11:04:30;16.67;;;7.38;;
82867;SDS011;72629;51.206;4.424;2023-10-08T11:06:56;14.65;;;7.00;;
82867;SDS011;72629;51.206;4.424;2023-10-08T11:09:25;14.55;;;6.97;;
82867;SDS011;72629;51.206;4.424;2023-10-08T11:12:01;18.98;;;7.55;;
82867;SDS011;72629;51.206;4.424;2023-10-08T11:14:36;16.55;;;6.95;;
82867;SDS011;72629;51.206;4.424;2023-10-08T11:17:11;14.07;;;6.65;;
82867;SDS011;72629;51.206;4.424;2023-10-08T11:19:44;18.35;;;7.70;;
82867;SDS011;72629;51.206;4.424;2023-10-08T11:22:14;14.43;;;6.65;;
82867;SDS011;72629;51.206;4.424;2023-10-08T11:24:46;11.45;;;5.97;;
82867;SDS011;72629;51.206;4.424;2023-10-08T11:27:18;14.13;;;6.53;;
82867;SDS011;72629;51.206;4.424;2023-10-08T11:29:53;14.57;;;7.03;;
82867;SDS011;72629;51.206;4.424;2023-10-08T11:32:23;14.35;;;6.32;;
82867;SDS011;72629;51.206;4.424;2023-10-08T11:34:57;17.83;;;7.40;;
82867;SDS011;72629;51.206;4.424;2023-10-08T11:37:28;16.98;;;7.10;;
82867;SDS011;72629;51.206;4.424;2023-10-08T11:39:55;15.93;;;6.38;;
82867;SDS011;72629;51.206;4.424;2023-10-08T11:42:25;14.50;;;6.22;;
82867;SDS011;72629;51.206;4.424;2023-10-08T11:44:57;20.15;;;6.55;;
82867;SDS011;72629;51.206;4.424;2023-10-08T11:47:42;16.48;;;6.22;;
82867;SDS011;72629;51.206;4.424;2023-10-08T11:50:14;14.38;;;6.45;;
82867;SDS011;72629;51.206;4.424;2023-10-08T11:52:44;17.63;;;6.70;;
82867;SDS011;72629;51.206;4.424;2023-10-08T11:55:11;14.27;;;6.45;;
82867;SDS011;72629;51.206;4.424;2023-10-08T11:57:47;14.82;;;5.97;;
82867;SDS011;72629;51.206;4.424;2023-10-08T12:00:15;12.45;;;6.30;;
82867;SDS011;72629;51.206;4.424;2023-10-08T12:02:47;16.00;;;5.88;;
82867;SDS011;72629;51.206;4.424;2023-10-08T12:05:13;15.38;;;6.13;;
82867;SDS011;72629;51.206;4.424;2023-10-08T12:07:52;16.00;;;8.07;;
82867;SDS011;72629;51.206;4.424;2023-10-08T12:10:22;13.90;;;6.93;;
82867;SDS011;72629;51.206;4.424;2023-10-08T12:12:52;18.33;;;7.18;;
82867;SDS011;72629;51.206;4.424;2023-10-08T12:15:19;17.65;;;6.38;;
82867;SDS011;72629;51.206;4.424;2023-10-08T12:17:49;14.00;;;6.38;;
82867;SDS011;72629;51.206;4.424;2023-10-08T12:20:36;17.08;;;6.10;;
82867;SDS011;72629;51.206;4.424;2023-10-08T12:23:04;11.73;;;5.68;;
82867;SDS011;72629;51.206;4.424;2023-10-08T12:25:31;13.13;;;6.23;;
82867;SDS011;72629;51.206;4.424;2023-10-08T12:28:00;14.90;;;6.03;;
82867;SDS011;72629;51.206;4.424;2023-10-08T12:30:32;17.27;;;6.18;;
82867;SDS011;72629;51.206;4.424;2023-10-08T12:33:06;12.50;;;5.63;;
82867;SDS011;72629;51.206;4.424;2023-10-08T12:35:34;15.90;;;5.97;;
82867;SDS011;72629;51.206;4.424;2023-10-08T12:38:02;15.50;;;6.05;;
82867;SDS011;72629;51.206;4.424;2023-10-08T12:40:30;11.48;;;5.70;;
82867;SDS011;72629;51.206;4.424;2023-10-08T12:43:07;13.57;;;5.80;;
82867;SDS011;72629;51.206;4.424;2023-10-08T12:45:33;14.40;;;5.85;;
82867;SDS011;72629;51.206;4.424;2023-10-08T12:48:02;13.30;;;6.03;;
82867;SDS011;72629;51.206;4.424;2023-10-08T12:50:30;13.50;;;5.60;;
82867;SDS011;72629;51.206;4.424;2023-10-08T12:53:04;18.15;;;6.55;;
82867;SDS011;72629;51.206;4.424;2023-10-08T12:55:30;11.07;;;5.65;;
82867;SDS011;72629;51.206;4.424;2023-10-08T12:57:56;12.63;;;5.68;;
82867;SDS011;72629;51.206;4.424;2023-10-08T13:00:31;17.23;;;5.43;;
82867;SDS011;72629;51.206;4.424;2023-10-08T13:02:57;13.30;;;5.57;;
82867;SDS011;72629;51.206;4.424;2023-10-08T13:05:23;13.00;;;5.32;;
82867;SDS011;72629;51.206;4.424;2023-10-08T13:07:56;15.18;;;6.03;;
82867;SDS011;72629;51.206;4.424;2023-10-08T13:10:22;13.73;;;5.78;;
82867;SDS011;72629;51.206;4.424;2023-10-08T13:12:49;12.63;;;5.45;;
82867;SDS011;72629;51.206;4.424;2023-10-08T13:15:15;16.05;;;5.50;;
82867;SDS011;72629;51.206;4.424;2023-10-08T13:17:40;17.27;;;5.53;;
82867;SDS011;72629;51.206;4.424;2023-10-08T13:20:11;17.67;;;7.13;;
82867;SDS011;72629;51.206;4.424;2023-10-08T13:22:38;13.00;;;5.45;;
82867;SDS011;72629;51.206;4.424;2023-10-08T13:25:04;14.30;;;5.88;;
82867;SDS011;72629;51.206;4.424;2023-10-08T13:27:31;15.40;;;5.70;;
82867;SDS011;72629;51.206;4.424;2023-10-08T13:29:57;12.13;;;5.20;;
82867;SDS011;72629;51.206;4.424;2023-10-08T13:32:23;16.48;;;6.05;;
82867;SDS011;72629;51.206;4.424;2023-10-08T13:34:49;14.90;;;5.88;;
82867;SDS011;72629;51.206;4.424;2023-10-08T13:37:15;11.50;;;5.20;;
82867;SDS011;72629;51.206;4.424;2023-10-08T13:39:41;11.85;;;5.68;;
82867;SDS011;72629;51.206;4.424;2023-10-08T13:42:07;14.45;;;5.88;;
82867;SDS011;72629;51.206;4.424;2023-10-08T13:44:33;12.20;;;5.55;;
82867;SDS011;72629;51.206;4.424;2023-10-08T13:47:00;12.82;;;5.85;;
82867;SDS011;72629;51.206;4.424;2023-10-08T13:49:30;13.18;;;5.53;;
82867;SDS011;72629;51.206;4.424;2023-10-08T13:51:57;15.27;;;6.18;;
82867;SDS011;72629;51.206;4.424;2023-10-08T13:54:23;14.27;;;5.93;;
82867;SDS011;72629;51.206;4.424;2023-10-08T13:56:57;15.18;;;6.40;;
82867;SDS011;72629;51.206;4.424;2023-10-08T13:59:26;12.85;;;5.85;;
82867;SDS011;72629;51.206;4.424;2023-10-08T14:01:52;14.48;;;5.82;;
82867;SDS011;72629;51.206;4.424;2023-10-08T14:04:20;15.85;;;6.07;;
82867;SDS011;72629;51.206;4.424;2023-10-08T14:06:51;11.52;;;5.70;;
82867;SDS011;72629;51.206;4.424;2023-10-08T14:09:18;13.57;;;5.75;;
82867;SDS011;72629;51.206;4.424;2023-10-08T14:12:05;13.90;;;5.80;;
82867;SDS011;72629;51.206;4.424;2023-10-08T14:14:35;13.45;;;5.63;;
82867;SDS011;72629;51.206;4.424;2023-10-08T14:17:06;14.07;;;6.03;;
82867;SDS011;72629;51.206;4.424;2023-10-08T14:19:32;12.27;;;5.90;;
82867;SDS011;72629;51.206;4.424;2023-10-08T14:22:24;12.00;;;5.50;;
82867;SDS011;72629;51.206;4.424;2023-10-08T14:24:52;10.82;;;5.25;;
82867;SDS011;72629;51.206;4.424;2023-10-08T14:27:26;10.10;;;5.25;;
82867;SDS011;72629;51.206;4.424;2023-10-08T14:29:57;12.40;;;5.43;;
82867;SDS011;72629;51.206;4.424;2023-10-08T14:32:26;13.90;;;5.80;;
82867;SDS011;72629;51.206;4.424;2023-10-08T14:34:52;12.98;;;5.63;;
82867;SDS011;72629;51.206;4.424;2023-10-08T14:37:51;13.63;;;5.50;;
82867;SDS011;72629;51.206;4.424;2023-10-08T14:40:35;12.38;;;5.72;;
82867;SDS011;72629;51.206;4.424;2023-10-08T14:43:19;12.35;;;5.55;;
82867;SDS011;72629;51.206;4.424;2023-10-08T14:45:48;12.27;;;5.63;;
82867;SDS011;72629;51.206;4.424;2023-10-08T14:48:14;13.68;;;6.18;;
82867;SDS011;72629;51.206;4.424;2023-10-08T14:50:39;13.85;;;6.47;;
82867;SDS011;72629;51.206;4.424;2023-10-08T14:53:07;14.13;;;5.72;;
82867;SDS011;72629;51.206;4.424;2023-10-08T14:55:33;14.18;;;5.50;;
82867;SDS011;72629;51.206;4.424;2023-10-08T14:58:01;13.27;;;5.63;;
82867;SDS011;72629;51.206;4.424;2023-10-08T15:00:32;15.25;;;5.88;;
82867;SDS011;72629;51.206;4.424;2023-10-08T15:03:01;13.40;;;5.60;;
82867;SDS011;72629;51.206;4.424;2023-10-08T15:05:30;13.13;;;5.55;;
82867;SDS011;72629;51.206;4.424;2023-10-08T15:07:56;11.82;;;5.68;;